createdAt,value
2022-08-03T00:00:48.200Z,7
2022-08-03T00:01:48.197Z,6
2022-08-03T00:02:48.237Z,5
2022-08-03T00:03:48.195Z,8
2022-08-03T00:04:48.229Z,6
2022-08-03T00:06:04.572Z,7
2022-08-03T00:06:48.201Z,8
2022-08-03T00:07:49.426Z,8
2022-08-03T00:08:48.193Z,6
2022-08-03T00:09:48.195Z,8
2022-08-03T00:10:48.198Z,7
2022-08-03T00:11:48.199Z,7
2022-08-03T00:12:48.199Z,5
2022-08-03T00:13:48.203Z,6
2022-08-03T00:14:48.211Z,7
2022-08-03T00:15:48.200Z,7
2022-08-03T00:16:48.199Z,6
2022-08-03T00:17:52.782Z,6
2022-08-03T00:18:48.255Z,5
2022-08-03T00:19:48.194Z,5
2022-08-03T00:20:48.197Z,7
2022-08-03T00:21:48.205Z,5
2022-08-03T00:22:48.218Z,7
2022-08-03T00:23:52.313Z,7
2022-08-03T00:24:48.199Z,6
2022-08-03T00:25:48.204Z,7
2022-08-03T00:26:48.203Z,11
2022-08-03T00:27:48.366Z,7
2022-08-03T00:28:48.208Z,7
2022-08-03T00:30:00.078Z,7
2022-08-03T00:30:48.206Z,7
2022-08-03T00:31:52.564Z,8
2022-08-03T00:32:48.256Z,8
2022-08-03T00:33:59.615Z,6
2022-08-03T00:34:57.927Z,6
2022-08-03T00:35:50.803Z,6
2022-08-03T00:36:48.209Z,6
2022-08-03T00:37:48.219Z,6
2022-08-03T00:38:48.210Z,6
2022-08-03T00:39:48.251Z,5
2022-08-03T00:40:48.214Z,7
2022-08-03T00:41:48.215Z,6
2022-08-03T00:42:48.219Z,5
2022-08-03T00:43:48.220Z,8
2022-08-03T00:44:48.209Z,8
2022-08-03T00:45:48.219Z,5
2022-08-03T00:46:48.217Z,7
2022-08-03T00:47:48.217Z,5
2022-08-03T00:48:48.293Z,7
2022-08-03T00:49:48.230Z,7
2022-08-03T00:50:48.220Z,7
2022-08-03T00:51:48.220Z,5
2022-08-03T00:52:48.217Z,7
2022-08-03T00:53:48.217Z,7
2022-08-03T00:54:48.219Z,5
2022-08-03T00:55:48.220Z,5
2022-08-03T00:56:59.456Z,7
2022-08-03T00:57:48.231Z,7
2022-08-03T00:58:48.219Z,7
2022-08-03T00:59:48.232Z,7
2022-08-03T01:00:48.315Z,7
2022-08-03T01:01:48.295Z,7
2022-08-03T01:02:48.282Z,7
2022-08-03T01:03:48.238Z,7
2022-08-03T01:04:49.286Z,6
2022-08-03T01:05:48.227Z,7
2022-08-03T01:06:48.230Z,7
2022-08-03T01:07:48.234Z,6
2022-08-03T01:08:48.222Z,6
2022-08-03T01:09:48.245Z,5
2022-08-03T01:10:48.225Z,6
2022-08-03T01:12:01.231Z,5
2022-08-03T01:12:48.232Z,5
2022-08-03T01:14:04.551Z,7
2022-08-03T01:14:48.237Z,6
2022-08-03T01:15:48.238Z,7
2022-08-03T01:16:48.237Z,7
2022-08-03T01:17:48.238Z,7
2022-08-03T01:18:48.240Z,8
2022-08-03T01:19:48.243Z,6
2022-08-03T01:20:48.246Z,6
2022-08-03T01:21:48.258Z,5
2022-08-03T01:22:48.234Z,7
2022-08-03T01:23:48.235Z,5
2022-08-03T01:24:48.240Z,5
2022-08-03T01:25:48.244Z,7
2022-08-03T01:26:48.243Z,8
2022-08-03T01:27:48.239Z,7
2022-08-03T01:28:48.252Z,9
2022-08-03T01:29:48.240Z,7
2022-08-03T01:30:48.261Z,7
2022-08-03T01:32:53.391Z,7
2022-08-03T01:32:58.562Z,7
2022-08-03T01:34:48.254Z,9
2022-08-03T01:35:48.243Z,9
2022-08-03T01:36:48.245Z,9
2022-08-03T01:37:48.248Z,9
2022-08-03T01:38:48.252Z,7
2022-08-03T01:39:48.252Z,7
2022-08-03T01:40:48.251Z,7
2022-08-03T01:41:48.251Z,7
2022-08-03T01:42:48.259Z,8
2022-08-03T01:44:03.041Z,8
2022-08-03T01:44:48.253Z,7
2022-08-03T01:45:48.252Z,6
2022-08-03T01:46:48.952Z,8
2022-08-03T01:47:48.250Z,8
2022-08-03T01:48:48.254Z,6
2022-08-03T01:49:48.342Z,6
2022-08-03T01:50:48.256Z,7
2022-08-03T01:52:03.033Z,8
2022-08-03T01:52:48.261Z,5
2022-08-03T01:53:48.255Z,9
2022-08-03T01:54:48.260Z,8
2022-08-03T01:55:48.314Z,6
2022-08-03T01:56:48.260Z,6
2022-08-03T01:58:48.259Z,8
2022-08-03T01:59:48.254Z,7
2022-08-03T02:00:48.328Z,8
2022-08-03T02:02:32.270Z,6
2022-08-03T02:02:48.343Z,6
2022-08-03T02:03:59.842Z,8
2022-08-03T02:04:48.264Z,7
2022-08-03T02:05:48.454Z,7
2022-08-03T02:07:00.399Z,7
2022-08-03T02:07:48.267Z,6
2022-08-03T02:08:48.266Z,7
2022-08-03T02:09:48.261Z,8
2022-08-03T02:10:48.263Z,8
2022-08-03T02:11:48.268Z,7
2022-08-03T02:12:51.147Z,7
2022-08-03T02:13:48.266Z,5
2022-08-03T02:14:48.272Z,7
2022-08-03T02:15:48.271Z,6
2022-08-03T02:16:48.269Z,5
2022-08-03T02:17:48.263Z,7
2022-08-03T02:19:48.331Z,7
2022-08-03T02:20:48.283Z,6
2022-08-03T02:21:56.674Z,6
2022-08-03T02:22:48.268Z,7
2022-08-03T02:23:48.280Z,7
2022-08-03T02:24:50.921Z,7
2022-08-03T02:25:48.289Z,7
2022-08-03T02:26:48.280Z,7
2022-08-03T02:27:48.290Z,7
2022-08-03T02:28:48.270Z,6
2022-08-03T02:29:48.286Z,6
2022-08-03T02:30:53.814Z,8
2022-08-03T02:31:48.273Z,6
2022-08-03T02:32:48.275Z,8
2022-08-03T02:34:48.335Z,5
2022-08-03T02:35:48.277Z,8
2022-08-03T02:36:48.278Z,5
2022-08-03T02:37:49.799Z,6
2022-08-03T02:38:48.279Z,6
2022-08-03T02:40:48.280Z,6
2022-08-03T02:41:48.334Z,6
2022-08-03T02:42:48.277Z,6
2022-08-03T02:44:06.294Z,6
2022-08-03T02:44:48.278Z,6
2022-08-03T02:45:48.284Z,5
2022-08-03T02:46:48.289Z,6
2022-08-03T02:47:53.178Z,6
2022-08-03T02:48:48.274Z,6
2022-08-03T02:49:51.368Z,7
2022-08-03T02:50:48.284Z,6
2022-08-03T02:51:48.290Z,7
2022-08-03T02:52:48.290Z,7
2022-08-03T02:53:48.289Z,7
2022-08-03T02:54:48.289Z,6
2022-08-03T02:55:48.292Z,7
2022-08-03T02:56:48.311Z,7
2022-08-03T02:57:48.336Z,6
2022-08-03T02:58:48.288Z,6
2022-08-03T02:59:48.289Z,8
2022-08-03T03:01:48.291Z,8
2022-08-03T03:02:48.295Z,6
2022-08-03T03:03:48.313Z,9
2022-08-03T03:05:50.620Z,8
2022-08-03T03:05:55.277Z,6
2022-08-03T03:06:48.331Z,6
2022-08-03T03:07:53.071Z,6
2022-08-03T03:08:48.304Z,11
2022-08-03T03:09:48.299Z,8
2022-08-03T03:10:48.299Z,10
2022-08-03T03:11:48.297Z,10
2022-08-03T03:12:48.297Z,7
2022-08-03T03:14:48.294Z,6
2022-08-03T03:15:48.319Z,6
2022-08-03T03:16:51.890Z,7
2022-08-03T03:17:48.297Z,8
2022-08-03T03:18:48.298Z,8
2022-08-03T03:20:48.365Z,8
2022-08-03T03:21:48.304Z,8
2022-08-03T03:22:48.305Z,7
2022-08-03T03:23:48.299Z,5
2022-08-03T03:24:48.429Z,8
2022-08-03T03:25:48.300Z,6
2022-08-03T03:27:49.402Z,7
2022-08-03T03:28:48.305Z,7
2022-08-03T03:29:48.305Z,6
2022-08-03T03:30:53.079Z,6
2022-08-03T03:31:48.315Z,5
2022-08-03T03:32:48.313Z,7
2022-08-03T03:33:48.308Z,6
2022-08-03T03:34:48.334Z,6
2022-08-03T03:35:48.305Z,9
2022-08-03T03:36:48.302Z,6
2022-08-03T03:37:48.306Z,6
2022-08-03T03:38:48.312Z,6
2022-08-03T03:39:48.324Z,8
2022-08-03T03:41:48.316Z,7
2022-08-03T03:42:48.313Z,7
2022-08-03T03:43:48.363Z,8
2022-08-03T03:44:48.322Z,8
2022-08-03T03:45:48.315Z,8
2022-08-03T03:46:48.317Z,10
2022-08-03T03:48:48.326Z,9
2022-08-03T03:49:48.319Z,9
2022-08-03T03:50:48.316Z,8
2022-08-03T03:51:48.328Z,8
2022-08-03T03:52:48.377Z,7
2022-08-03T03:53:48.324Z,7
2022-08-03T03:54:48.323Z,8
2022-08-03T03:55:59.595Z,7
2022-08-03T03:56:48.325Z,5
2022-08-03T03:57:48.322Z,5
2022-08-03T03:59:48.320Z,6
2022-08-03T04:00:48.377Z,8
2022-08-03T04:02:48.334Z,8
2022-08-03T04:03:48.322Z,5
2022-08-03T04:04:48.320Z,7
2022-08-03T04:05:48.323Z,7
2022-08-03T04:06:48.370Z,7
2022-08-03T04:07:48.333Z,7
2022-08-03T04:08:49.459Z,6
2022-08-03T04:09:48.346Z,9
2022-08-03T04:10:48.341Z,8
2022-08-03T04:11:48.331Z,7
2022-08-03T04:12:50.100Z,6
2022-08-03T04:13:48.333Z,6
2022-08-03T04:14:48.336Z,8
2022-08-03T04:15:48.325Z,7
2022-08-03T04:16:48.323Z,7
2022-08-03T04:17:48.323Z,6
2022-08-03T04:18:48.322Z,7
2022-08-03T04:19:48.328Z,6
2022-08-03T04:20:48.330Z,6
2022-08-03T04:21:48.336Z,7
2022-08-03T04:22:48.344Z,7
2022-08-03T04:23:48.368Z,7
2022-08-03T04:24:48.331Z,7
2022-08-03T04:25:48.338Z,9
2022-08-03T04:26:52.333Z,8
2022-08-03T04:28:29.218Z,8
2022-08-03T04:28:48.338Z,8
2022-08-03T04:29:48.788Z,9
2022-08-03T04:30:48.340Z,8
2022-08-03T04:31:48.340Z,6
2022-08-03T04:32:48.338Z,8
2022-08-03T04:33:48.346Z,7
2022-08-03T04:34:48.340Z,8
2022-08-03T04:35:59.727Z,9
2022-08-03T04:36:48.371Z,9
2022-08-03T04:37:48.349Z,8
2022-08-03T04:38:48.389Z,8
2022-08-03T04:39:48.377Z,6
2022-08-03T04:40:48.339Z,6
2022-08-03T04:42:16.834Z,8
2022-08-03T04:42:48.351Z,6
2022-08-03T04:43:48.348Z,6
2022-08-03T04:44:48.347Z,8
2022-08-03T04:45:48.348Z,7
2022-08-03T04:46:52.476Z,9
2022-08-03T04:47:48.357Z,9
2022-08-03T04:48:48.342Z,9
2022-08-03T04:49:48.348Z,10
2022-08-03T04:50:48.354Z,10
2022-08-03T04:51:48.346Z,10
2022-08-03T04:52:48.382Z,7
2022-08-03T04:53:48.351Z,8
2022-08-03T04:54:50.664Z,7
2022-08-03T04:55:48.347Z,10
2022-08-03T04:56:48.387Z,8
2022-08-03T04:57:48.350Z,8
2022-08-03T04:58:48.350Z,8
2022-08-03T04:59:48.352Z,10
2022-08-03T05:00:48.357Z,11
2022-08-03T05:01:48.422Z,8
2022-08-03T05:02:48.346Z,8
2022-08-03T05:03:48.352Z,6
2022-08-03T05:05:49.860Z,10
2022-08-03T05:06:55.021Z,10
2022-08-03T05:07:48.355Z,9
2022-08-03T05:08:48.879Z,8
2022-08-03T05:09:52.472Z,7
2022-08-03T05:10:48.361Z,7
2022-08-03T05:11:48.358Z,6
2022-08-03T05:12:48.366Z,8
2022-08-03T05:13:48.365Z,7
2022-08-03T05:14:48.373Z,7
2022-08-03T05:15:48.415Z,8
2022-08-03T05:16:48.364Z,8
2022-08-03T05:17:48.367Z,7
2022-08-03T05:18:48.370Z,8
2022-08-03T05:19:48.362Z,8
2022-08-03T05:20:48.362Z,8
2022-08-03T05:21:52.452Z,7
2022-08-03T05:22:48.747Z,9
2022-08-03T05:23:48.368Z,6
2022-08-03T05:24:48.367Z,7
2022-08-03T05:25:50.087Z,7
2022-08-03T05:26:48.365Z,6
2022-08-03T05:27:48.394Z,6
2022-08-03T05:28:50.899Z,7
2022-08-03T05:29:48.407Z,7
2022-08-03T05:30:48.366Z,10
2022-08-03T05:31:48.377Z,8
2022-08-03T05:32:48.372Z,6
2022-08-03T05:33:48.372Z,6
2022-08-03T05:34:48.379Z,8
2022-08-03T05:36:01.566Z,5
2022-08-03T05:36:48.401Z,8
2022-08-03T05:37:54.773Z,8
2022-08-03T05:39:48.372Z,6
2022-08-03T05:40:57.424Z,6
2022-08-03T05:41:48.379Z,8
2022-08-03T05:42:48.385Z,6
2022-08-03T05:44:48.375Z,5
2022-08-03T05:46:01.484Z,8
2022-08-03T05:47:48.383Z,7
2022-08-03T05:48:48.376Z,7
2022-08-03T05:49:48.382Z,7
2022-08-03T05:50:48.379Z,7
2022-08-03T05:51:48.399Z,6
2022-08-03T05:52:48.378Z,6
2022-08-03T05:53:48.384Z,6
2022-08-03T05:54:55.426Z,6
2022-08-03T05:55:51.354Z,7
2022-08-03T05:56:48.390Z,7
2022-08-03T05:57:49.295Z,7
2022-08-03T05:58:48.397Z,8
2022-08-03T06:00:48.393Z,6
2022-08-03T06:01:48.488Z,7
2022-08-03T06:02:48.383Z,5
2022-08-03T06:03:48.394Z,8
2022-08-03T06:04:48.406Z,5
2022-08-03T06:05:59.999Z,7
2022-08-03T06:06:48.399Z,8
2022-08-03T06:07:48.418Z,9
2022-08-03T06:08:48.452Z,6
2022-08-03T06:10:34.149Z,6
2022-08-03T06:10:48.395Z,7
2022-08-03T06:11:48.410Z,7
2022-08-03T06:12:48.400Z,8
2022-08-03T06:13:48.397Z,6
2022-08-03T06:14:48.396Z,8
2022-08-03T06:15:48.398Z,8
2022-08-03T06:16:48.399Z,5
2022-08-03T06:17:48.401Z,5
2022-08-03T06:18:48.397Z,5
2022-08-03T06:19:48.401Z,5
2022-08-03T06:21:48.401Z,8
2022-08-03T06:22:50.480Z,8
2022-08-03T06:23:52.956Z,8
2022-08-03T06:26:48.409Z,6
2022-08-03T06:27:48.413Z,7
2022-08-03T06:28:52.249Z,6
2022-08-03T06:29:48.402Z,7
2022-08-03T06:30:48.409Z,5
2022-08-03T06:31:48.471Z,7
2022-08-03T06:32:52.070Z,7
2022-08-03T06:34:30.722Z,8
2022-08-03T06:34:48.412Z,8
2022-08-03T06:35:48.409Z,8
2022-08-03T06:36:48.426Z,8
2022-08-03T06:37:48.414Z,7
2022-08-03T06:38:48.420Z,7
2022-08-03T06:39:48.416Z,7
2022-08-03T06:40:48.443Z,7
2022-08-03T06:42:48.420Z,7
2022-08-03T06:44:03.485Z,8
2022-08-03T06:44:48.415Z,7
2022-08-03T06:45:48.419Z,7
2022-08-03T06:46:48.474Z,7
2022-08-03T06:47:48.419Z,5
2022-08-03T06:48:48.655Z,5
2022-08-03T06:50:17.091Z,5
2022-08-03T06:50:48.419Z,8
2022-08-03T06:52:06.062Z,8
2022-08-03T06:52:48.420Z,6
2022-08-03T06:53:48.421Z,6
2022-08-03T06:54:48.419Z,9
2022-08-03T06:55:53.880Z,6
2022-08-03T06:56:48.480Z,6
2022-08-03T06:58:48.422Z,7
2022-08-03T07:00:10.656Z,7
2022-08-03T07:01:48.466Z,8
2022-08-03T07:02:48.424Z,7
2022-08-03T07:03:52.128Z,5
2022-08-03T07:04:48.435Z,6
2022-08-03T07:05:48.432Z,6
2022-08-03T07:06:48.431Z,5
2022-08-03T07:07:48.429Z,5
2022-08-03T07:08:51.536Z,4
2022-08-03T07:09:56.951Z,4
2022-08-03T07:10:48.429Z,5
2022-08-03T07:11:48.438Z,6
2022-08-03T07:12:56.639Z,7
2022-08-03T07:13:48.437Z,5
2022-08-03T07:14:48.434Z,6
2022-08-03T07:15:55.563Z,8
2022-08-03T07:16:48.443Z,5
2022-08-03T07:17:48.439Z,5
2022-08-03T07:18:48.434Z,5
2022-08-03T07:19:48.467Z,5
2022-08-03T07:20:48.448Z,5
2022-08-03T07:22:48.440Z,6
2022-08-03T07:23:48.440Z,6
2022-08-03T07:24:48.455Z,6
2022-08-03T07:25:48.444Z,7
2022-08-03T07:26:48.481Z,5
2022-08-03T07:27:51.707Z,8
2022-08-03T07:28:48.446Z,8
2022-08-03T07:29:48.453Z,10
2022-08-03T07:30:48.447Z,5
2022-08-03T07:31:48.452Z,5
2022-08-03T07:32:50.254Z,5
2022-08-03T07:33:48.459Z,6
2022-08-03T07:34:48.458Z,4
2022-08-03T07:35:48.513Z,6
2022-08-03T07:36:48.460Z,6
2022-08-03T07:37:54.517Z,6
2022-08-03T07:38:48.453Z,6
2022-08-03T07:39:48.461Z,8
2022-08-03T07:40:48.451Z,5
2022-08-03T07:41:48.459Z,6
2022-08-03T07:43:48.455Z,5
2022-08-03T07:44:48.516Z,5
2022-08-03T07:45:48.462Z,5
2022-08-03T07:46:48.468Z,7
2022-08-03T07:47:53.490Z,7
2022-08-03T07:48:48.460Z,5
2022-08-03T07:49:48.473Z,6
2022-08-03T07:50:48.466Z,5
2022-08-03T07:51:48.468Z,5
2022-08-03T07:52:48.497Z,5
2022-08-03T07:53:48.461Z,4
2022-08-03T07:54:48.460Z,5
2022-08-03T07:55:48.469Z,5
2022-08-03T07:56:48.467Z,7
2022-08-03T07:57:48.465Z,3
2022-08-03T07:58:48.477Z,5
2022-08-03T07:59:49.090Z,5
2022-08-03T08:00:48.552Z,6
2022-08-03T08:01:48.514Z,5
2022-08-03T08:02:48.485Z,6
2022-08-03T08:04:48.471Z,5
2022-08-03T08:05:48.476Z,6
2022-08-03T08:06:48.474Z,6
2022-08-03T08:07:51.253Z,5
2022-08-03T08:08:48.470Z,5
2022-08-03T08:09:48.481Z,6
2022-08-03T08:10:58.492Z,6
2022-08-03T08:12:48.479Z,4
2022-08-03T08:13:48.479Z,6
2022-08-03T08:14:48.482Z,6
2022-08-03T08:15:48.494Z,5
2022-08-03T08:16:48.516Z,6
2022-08-03T08:17:48.494Z,5
2022-08-03T08:18:48.487Z,5
2022-08-03T08:19:51.573Z,4
2022-08-03T08:20:48.481Z,5
2022-08-03T08:21:53.128Z,4
2022-08-03T08:22:48.489Z,4
2022-08-03T08:23:57.751Z,5
2022-08-03T08:26:48.499Z,6
2022-08-03T08:28:28.995Z,5
2022-08-03T08:28:48.488Z,5
2022-08-03T08:29:54.321Z,4
2022-08-03T08:30:48.502Z,6
2022-08-03T08:31:48.507Z,5
2022-08-03T08:32:48.560Z,4
2022-08-03T08:34:03.491Z,4
2022-08-03T08:34:48.500Z,4
2022-08-03T08:35:48.497Z,4
2022-08-03T08:36:48.491Z,7
2022-08-03T08:37:51.006Z,7
2022-08-03T08:38:48.502Z,6
2022-08-03T08:39:48.537Z,4
2022-08-03T08:40:48.500Z,5
2022-08-03T08:41:53.031Z,5
2022-08-03T08:42:57.872Z,4
2022-08-03T08:43:48.509Z,5
2022-08-03T08:44:48.497Z,5
2022-08-03T08:45:48.501Z,5
2022-08-03T08:46:48.502Z,5
2022-08-03T08:47:51.131Z,4
2022-08-03T08:48:48.505Z,7
2022-08-03T08:50:04.003Z,7
2022-08-03T08:50:48.511Z,4
2022-08-03T08:51:54.686Z,5
2022-08-03T08:52:48.513Z,5
2022-08-03T08:53:48.510Z,5
2022-08-03T08:54:48.507Z,4
2022-08-03T08:55:57.191Z,4
2022-08-03T08:57:48.508Z,7
2022-08-03T08:58:48.512Z,5
2022-08-03T08:59:50.165Z,7
2022-08-03T09:00:48.698Z,5
2022-08-03T09:01:48.531Z,6
2022-08-03T09:02:48.532Z,4
2022-08-03T09:03:48.517Z,6
2022-08-03T09:04:48.524Z,6
2022-08-03T09:05:55.788Z,6
2022-08-03T09:07:10.514Z,6
2022-08-03T09:08:48.519Z,4
2022-08-03T09:10:11.218Z,5
2022-08-03T09:10:48.517Z,5
2022-08-03T09:11:52.373Z,6
2022-08-03T09:12:48.526Z,4
2022-08-03T09:13:48.519Z,6
2022-08-03T09:15:07.394Z,6
2022-08-03T09:16:00.556Z,7
2022-08-03T09:16:48.528Z,4
2022-08-03T09:18:48.536Z,4
2022-08-03T09:20:03.090Z,7
2022-08-03T09:20:48.529Z,4
2022-08-03T09:21:48.534Z,5
2022-08-03T09:22:48.528Z,5
2022-08-03T09:24:02.394Z,5
2022-08-03T09:25:03.175Z,5
2022-08-03T09:25:48.533Z,6
2022-08-03T09:26:48.532Z,5
2022-08-03T09:27:48.537Z,5
2022-08-03T09:28:56.577Z,6
2022-08-03T09:29:48.536Z,4
2022-08-03T09:30:48.538Z,5
2022-08-03T09:31:48.553Z,5
2022-08-03T09:32:48.544Z,5
2022-08-03T09:33:48.575Z,6
2022-08-03T09:34:48.543Z,4
2022-08-03T09:35:57.833Z,4
2022-08-03T09:36:48.584Z,6
2022-08-03T09:38:12.584Z,5
2022-08-03T09:38:48.542Z,5
2022-08-03T09:39:48.544Z,5
2022-08-03T09:41:48.538Z,7
2022-08-03T09:42:48.547Z,4
2022-08-03T09:43:48.550Z,6
2022-08-03T09:44:48.552Z,7
2022-08-03T09:45:48.546Z,9
2022-08-03T09:46:50.106Z,6
2022-08-03T09:47:48.544Z,5
2022-08-03T09:48:48.545Z,7
2022-08-03T09:49:48.555Z,5
2022-08-03T09:50:57.035Z,7
2022-08-03T09:52:31.526Z,6
2022-08-03T09:52:50.019Z,5
2022-08-03T09:53:59.156Z,6
2022-08-03T09:54:48.554Z,6
2022-08-03T09:56:35.118Z,7
2022-08-03T09:56:48.562Z,9
2022-08-03T09:57:48.558Z,8
2022-08-03T09:58:48.593Z,8
2022-08-03T09:59:48.572Z,8
2022-08-03T10:00:48.629Z,6
2022-08-03T10:02:48.565Z,5
2022-08-03T10:04:04.354Z,8
2022-08-03T10:04:48.565Z,5
2022-08-03T10:05:48.569Z,8
2022-08-03T10:06:48.562Z,8
2022-08-03T10:07:48.570Z,4
2022-08-03T10:08:48.560Z,4
2022-08-03T10:09:48.581Z,4
2022-08-03T10:10:48.567Z,5
2022-08-03T10:11:48.575Z,7
2022-08-03T10:12:48.571Z,6
2022-08-03T10:13:48.568Z,7
2022-08-03T10:14:48.565Z,5
2022-08-03T10:16:21.661Z,5
2022-08-03T10:16:48.618Z,7
2022-08-03T10:17:48.573Z,7
2022-08-03T10:18:48.578Z,7
2022-08-03T10:19:48.581Z,8
2022-08-03T10:20:48.578Z,6
2022-08-03T10:21:48.573Z,6
2022-08-03T10:23:48.574Z,6
2022-08-03T10:24:48.583Z,6
2022-08-03T10:25:48.577Z,6
2022-08-03T10:26:50.048Z,5
2022-08-03T10:27:48.580Z,6
2022-08-03T10:28:48.581Z,5
2022-08-03T10:29:48.588Z,5
2022-08-03T10:30:48.586Z,5
2022-08-03T10:31:58.269Z,5
2022-08-03T10:32:48.645Z,5
2022-08-03T10:33:50.310Z,5
2022-08-03T10:34:48.591Z,6
2022-08-03T10:35:48.592Z,6
2022-08-03T10:36:48.590Z,5
2022-08-03T10:37:56.685Z,4
2022-08-03T10:38:48.594Z,6
2022-08-03T10:39:48.593Z,5
2022-08-03T10:40:50.451Z,4
2022-08-03T10:41:48.931Z,5
2022-08-03T10:44:48.589Z,5
2022-08-03T10:45:48.592Z,9
2022-08-03T10:46:48.603Z,7
2022-08-03T10:47:48.596Z,6
2022-08-03T10:48:48.664Z,5
2022-08-03T10:49:48.666Z,5
2022-08-03T10:50:48.598Z,5
2022-08-03T10:51:48.604Z,5
2022-08-03T10:52:49.197Z,5
2022-08-03T10:53:54.713Z,6
2022-08-03T10:54:48.608Z,4
2022-08-03T10:55:48.602Z,4
2022-08-03T10:56:50.342Z,4
2022-08-03T10:57:49.632Z,5
2022-08-03T10:58:57.037Z,5
2022-08-03T10:59:48.602Z,5
2022-08-03T11:00:48.641Z,5
2022-08-03T11:01:58.781Z,5
2022-08-03T11:02:48.607Z,4
2022-08-03T11:03:48.612Z,4
2022-08-03T11:05:48.618Z,4
2022-08-03T11:06:48.672Z,7
2022-08-03T11:07:54.510Z,7
2022-08-03T11:08:48.616Z,4
2022-08-03T11:09:48.711Z,4
2022-08-03T11:10:48.618Z,5
2022-08-03T11:11:48.623Z,5
2022-08-03T11:12:48.626Z,5
2022-08-03T11:13:48.626Z,5
2022-08-03T11:14:48.625Z,4
2022-08-03T11:15:48.621Z,4
2022-08-03T11:16:48.649Z,5
2022-08-03T11:17:55.857Z,3
2022-08-03T11:18:48.621Z,6
2022-08-03T11:19:57.618Z,6
2022-08-03T11:20:48.632Z,2
2022-08-03T11:21:48.630Z,4
2022-08-03T11:22:48.631Z,4
2022-08-03T11:24:02.455Z,4
2022-08-03T11:24:48.637Z,3
2022-08-03T11:26:48.635Z,5
2022-08-03T11:27:48.630Z,5
2022-08-03T11:28:48.644Z,5
2022-08-03T11:29:48.638Z,4
2022-08-03T11:30:48.635Z,5
2022-08-03T11:31:50.594Z,4
2022-08-03T11:32:49.176Z,4
2022-08-03T11:33:48.725Z,4
2022-08-03T11:34:48.643Z,4
2022-08-03T11:35:48.644Z,3
2022-08-03T11:36:48.667Z,6
2022-08-03T11:38:03.345Z,4
2022-08-03T11:38:48.643Z,4
2022-08-03T11:39:48.647Z,5
2022-08-03T11:40:48.647Z,4
2022-08-03T11:41:48.642Z,4
2022-08-03T11:42:48.644Z,4
2022-08-03T11:43:48.657Z,4
2022-08-03T11:44:48.657Z,4
2022-08-03T11:45:48.653Z,5
2022-08-03T11:47:50.987Z,7
2022-08-03T11:48:48.659Z,3
2022-08-03T11:49:48.676Z,4
2022-08-03T11:50:48.657Z,4
2022-08-03T11:51:48.656Z,4
2022-08-03T11:52:48.657Z,4
2022-08-03T11:53:48.652Z,3
2022-08-03T11:54:48.668Z,6
2022-08-03T11:55:48.658Z,6
2022-08-03T11:56:48.665Z,5
2022-08-03T11:58:58.271Z,4
2022-08-03T11:59:01.447Z,5
2022-08-03T11:59:48.662Z,6
2022-08-03T12:00:48.736Z,6
2022-08-03T12:01:48.666Z,6
2022-08-03T12:02:48.683Z,3
2022-08-03T12:03:48.666Z,3
2022-08-03T12:04:48.672Z,3
2022-08-03T12:05:52.112Z,3
2022-08-03T12:06:48.669Z,4
2022-08-03T12:08:48.671Z,5
2022-08-03T12:09:48.671Z,5
2022-08-03T12:10:48.944Z,4
2022-08-03T12:11:59.783Z,3
2022-08-03T12:12:48.678Z,5
2022-08-03T12:14:08.835Z,5
2022-08-03T12:14:52.081Z,3
2022-08-03T12:15:48.692Z,3
2022-08-03T12:16:48.674Z,4
2022-08-03T12:17:48.672Z,4
2022-08-03T12:18:48.719Z,4
2022-08-03T12:19:48.682Z,4
2022-08-03T12:20:48.684Z,4
2022-08-03T12:21:57.346Z,4
2022-08-03T12:22:48.693Z,4
2022-08-03T12:23:48.685Z,5
2022-08-03T12:24:48.695Z,4
2022-08-03T12:26:58.617Z,5
2022-08-03T12:27:48.740Z,6
2022-08-03T12:29:58.261Z,4
2022-08-03T12:30:48.693Z,5
2022-08-03T12:31:48.688Z,5
2022-08-03T12:32:48.694Z,5
2022-08-03T12:33:48.701Z,5
2022-08-03T12:34:48.702Z,6
2022-08-03T12:35:52.367Z,4
2022-08-03T12:36:48.708Z,4
2022-08-03T12:37:48.702Z,4
2022-08-03T12:38:48.740Z,6
2022-08-03T12:40:48.697Z,4
2022-08-03T12:41:48.708Z,4
2022-08-03T12:42:48.706Z,4
2022-08-03T12:43:48.702Z,6
2022-08-03T12:44:48.704Z,6
2022-08-03T12:45:48.746Z,5
2022-08-03T12:46:48.701Z,5
2022-08-03T12:47:48.716Z,5
2022-08-03T12:48:48.700Z,3
2022-08-03T12:49:48.743Z,5
2022-08-03T12:50:48.714Z,4
2022-08-03T12:51:48.709Z,4
2022-08-03T12:52:48.717Z,5
2022-08-03T12:53:48.708Z,4
2022-08-03T12:54:48.791Z,7
2022-08-03T12:56:01.511Z,7
2022-08-03T12:56:48.711Z,4
2022-08-03T12:57:48.715Z,4
2022-08-03T12:58:48.716Z,5
2022-08-03T12:59:53.483Z,5
2022-08-03T13:01:54.800Z,3
2022-08-03T13:03:00.543Z,4
2022-08-03T13:03:49.956Z,4
2022-08-03T13:04:48.712Z,5
2022-08-03T13:05:48.731Z,4
2022-08-03T13:06:48.716Z,4
2022-08-03T13:08:48.729Z,4
2022-08-03T13:09:48.736Z,3
2022-08-03T13:11:57.294Z,4
2022-08-03T13:12:48.728Z,4
2022-08-03T13:13:48.732Z,4
2022-08-03T13:14:48.738Z,3
2022-08-03T13:15:48.729Z,4
2022-08-03T13:16:48.728Z,4
2022-08-03T13:17:48.738Z,6
2022-08-03T13:18:48.732Z,4
2022-08-03T13:19:48.749Z,5
2022-08-03T13:20:48.730Z,4
2022-08-03T13:22:48.731Z,4
2022-08-03T13:23:48.734Z,4
2022-08-03T13:24:48.736Z,5
2022-08-03T13:25:55.738Z,5
2022-08-03T13:26:48.745Z,5
2022-08-03T13:28:03.565Z,4
2022-08-03T13:28:48.742Z,5
2022-08-03T13:29:48.743Z,5
2022-08-03T13:30:48.743Z,5
2022-08-03T13:31:50.531Z,4
2022-08-03T13:32:48.754Z,5
2022-08-03T13:33:48.746Z,5
2022-08-03T13:34:48.747Z,5
2022-08-03T13:35:48.745Z,7
2022-08-03T13:37:13.643Z,5
2022-08-03T13:37:48.996Z,4
2022-08-03T13:38:48.758Z,4
2022-08-03T13:39:59.516Z,7
2022-08-03T13:40:49.466Z,7
2022-08-03T13:41:48.753Z,4
2022-08-03T13:43:50.029Z,3
2022-08-03T13:44:48.783Z,4
2022-08-03T13:45:52.299Z,4
2022-08-03T13:46:48.760Z,4
2022-08-03T13:47:48.778Z,4
2022-08-03T13:48:48.832Z,4
2022-08-03T13:49:59.554Z,4
2022-08-03T13:50:48.770Z,6
2022-08-03T13:51:48.767Z,4
2022-08-03T13:52:48.764Z,3
2022-08-03T13:53:48.770Z,3
2022-08-03T13:54:48.764Z,5
2022-08-03T13:55:48.764Z,4
2022-08-03T13:56:48.782Z,4
2022-08-03T13:58:06.664Z,4
2022-08-03T13:58:48.770Z,4
2022-08-03T13:59:48.804Z,3
2022-08-03T14:00:48.766Z,3
2022-08-03T14:01:55.471Z,3
2022-08-03T14:02:48.773Z,4
2022-08-03T14:04:48.770Z,3
2022-08-03T14:05:48.778Z,3
2022-08-03T14:06:48.829Z,6
2022-08-03T14:07:48.838Z,6
2022-08-03T14:08:48.778Z,4
2022-08-03T14:09:48.778Z,3
2022-08-03T14:10:48.794Z,4
2022-08-03T14:12:48.784Z,3
2022-08-03T14:13:48.778Z,3
2022-08-03T14:15:49.796Z,5
2022-08-03T14:16:48.786Z,5
2022-08-03T14:17:50.044Z,3
2022-08-03T14:18:48.790Z,6
2022-08-03T14:19:52.965Z,5
2022-08-03T14:20:54.280Z,5
2022-08-03T14:21:52.700Z,5
2022-08-03T14:22:48.792Z,4
2022-08-03T14:23:48.791Z,6
2022-08-03T14:25:51.460Z,4
2022-08-03T14:26:48.789Z,3
2022-08-03T14:27:48.792Z,4
2022-08-03T14:28:48.796Z,4
2022-08-03T14:29:48.795Z,4
2022-08-03T14:30:48.875Z,4
2022-08-03T14:32:11.804Z,4
2022-08-03T14:32:48.798Z,4
2022-08-03T14:33:48.792Z,3
2022-08-03T14:34:48.809Z,3
2022-08-03T14:36:48.796Z,4
2022-08-03T14:37:48.796Z,4
2022-08-03T14:38:48.821Z,4
2022-08-03T14:40:04.472Z,3
2022-08-03T14:40:48.814Z,5
2022-08-03T14:41:48.801Z,6
2022-08-03T14:42:48.808Z,4
2022-08-03T14:44:48.862Z,5
2022-08-03T14:45:48.803Z,5
2022-08-03T14:46:48.807Z,3
2022-08-03T14:50:28.573Z,5
2022-08-03T14:50:30.494Z,3
2022-08-03T14:50:33.381Z,3
2022-08-03T14:50:51.479Z,5
2022-08-03T14:51:51.519Z,5
2022-08-03T14:52:48.822Z,6
2022-08-03T14:53:48.822Z,5
2022-08-03T14:54:48.810Z,3
2022-08-03T14:55:50.434Z,3
2022-08-03T14:57:48.815Z,3
2022-08-03T14:58:48.821Z,3
2022-08-03T14:59:55.495Z,3
2022-08-03T15:00:48.888Z,2
2022-08-03T15:02:03.119Z,5
2022-08-03T15:02:48.882Z,3
2022-08-03T15:03:48.828Z,3
2022-08-03T15:05:48.830Z,4
2022-08-03T15:06:51.406Z,4
2022-08-03T15:07:48.882Z,4
2022-08-03T15:09:06.308Z,3
2022-08-03T15:09:48.840Z,4
2022-08-03T15:10:49.297Z,4
2022-08-03T15:11:48.836Z,2
2022-08-03T15:12:48.836Z,4
2022-08-03T15:13:48.875Z,3
2022-08-03T15:14:48.939Z,5
2022-08-03T15:15:48.841Z,3
2022-08-03T15:16:48.850Z,3
2022-08-03T15:18:48.837Z,4
2022-08-03T15:20:01.316Z,5
2022-08-03T15:20:48.855Z,3
2022-08-03T15:21:48.846Z,4
2022-08-03T15:22:48.843Z,4
2022-08-03T15:23:48.853Z,6
2022-08-03T15:24:48.850Z,4
2022-08-03T15:26:48.846Z,4
2022-08-03T15:28:04.076Z,4
2022-08-03T15:28:48.854Z,3
2022-08-03T15:30:07.688Z,3
2022-08-03T15:30:48.849Z,3
2022-08-03T15:31:48.849Z,3
2022-08-03T15:32:48.845Z,5
2022-08-03T15:33:48.854Z,3
2022-08-03T15:34:50.504Z,3
2022-08-03T15:35:48.847Z,4
2022-08-03T15:36:48.851Z,3
2022-08-03T15:37:48.852Z,4
2022-08-03T15:38:49.059Z,3
2022-08-03T15:39:58.286Z,3
2022-08-03T15:40:48.866Z,3
2022-08-03T15:41:48.874Z,3
2022-08-03T15:42:48.855Z,5
2022-08-03T15:43:48.859Z,3
2022-08-03T15:44:48.862Z,5
2022-08-03T15:45:54.713Z,5
2022-08-03T15:47:48.861Z,3